createdAt,value
2019-01-26T00:02:14.390Z,90.55
2019-01-26T00:04:43.921Z,90.71
2019-01-26T00:07:13.523Z,90.75
2019-01-26T00:09:43.090Z,90.71
2019-01-26T00:12:13.663Z,90.52
2019-01-26T00:14:43.172Z,90.48
2019-01-26T00:17:12.796Z,90.51
2019-01-26T00:19:42.338Z,90.54
2019-01-26T00:22:11.901Z,90.48
2019-01-26T00:24:41.432Z,90.49
2019-01-26T00:27:11.047Z,90.57
2019-01-26T00:29:40.567Z,90.43
2019-01-26T00:32:10.115Z,90.51
2019-01-26T00:34:39.655Z,90.40
2019-01-26T00:37:09.180Z,90.44
2019-01-26T00:39:38.747Z,90.58
2019-01-26T00:42:08.290Z,90.80
2019-01-26T00:47:33.696Z,90.80
2019-01-26T00:50:06.973Z,90.88
2019-01-26T00:52:36.579Z,90.97
2019-01-26T00:55:08.334Z,91.07
2019-01-26T00:57:37.889Z,91.25
2019-01-26T01:00:18.219Z,91.28
2019-01-26T01:02:47.793Z,91.12
2019-01-26T01:05:17.937Z,90.98
2019-01-26T01:07:49.324Z,90.99
2019-01-26T01:10:20.701Z,90.92
2019-01-26T01:12:50.320Z,90.91
2019-01-26T01:15:23.588Z,91.01
2019-01-26T01:17:53.224Z,90.96
2019-01-26T01:20:22.926Z,90.99
2019-01-26T01:22:52.454Z,91.05
2019-01-26T01:25:22.195Z,91.14
2019-01-26T01:27:51.720Z,91.25
2019-01-26T01:30:24.286Z,91.22
2019-01-26T01:32:53.895Z,91.20
2019-01-26T01:35:23.528Z,91.06
2019-01-26T01:37:53.071Z,91.23
2019-01-26T01:40:22.696Z,91.31
2019-01-26T01:42:52.504Z,91.35
2019-01-26T01:45:24.273Z,91.34
2019-01-26T01:47:53.899Z,91.33
2019-01-26T01:50:23.494Z,91.39
2019-01-26T01:52:53.072Z,91.36
2019-01-26T01:55:22.599Z,91.27
2019-01-26T01:57:52.152Z,91.45
2019-01-26T02:00:25.081Z,91.42
2019-01-26T02:02:54.642Z,91.28
2019-01-26T02:05:24.185Z,91.22
2019-01-26T02:07:53.725Z,91.29
2019-01-26T02:10:24.978Z,91.21
2019-01-26T02:12:54.524Z,91.27
2019-01-26T02:15:24.088Z,91.13
2019-01-26T02:17:53.635Z,91.04
2019-01-26T02:20:23.599Z,91.00
2019-01-26T02:22:53.142Z,91.01
2019-01-26T02:25:22.837Z,91.02
2019-01-26T02:27:52.382Z,90.98
2019-01-26T02:30:24.063Z,90.84
2019-01-26T02:32:54.701Z,90.77
2019-01-26T02:35:24.412Z,90.72
2019-01-26T02:37:53.977Z,90.78
2019-01-26T02:40:23.507Z,90.91
2019-01-26T02:42:53.056Z,90.96
2019-01-26T02:45:22.592Z,90.99
2019-01-26T02:47:52.131Z,90.83
2019-01-26T02:50:21.674Z,90.70
2019-01-26T02:52:51.225Z,90.89
2019-01-26T02:55:20.767Z,90.92
2019-01-26T02:57:50.304Z,90.89
2019-01-26T03:00:24.843Z,90.93
2019-01-26T03:02:54.468Z,91.06
2019-01-26T03:05:23.999Z,91.03
2019-01-26T03:07:53.550Z,90.95
2019-01-26T03:10:23.962Z,90.87
2019-01-26T03:12:53.514Z,90.81
2019-01-26T03:15:24.474Z,90.81
2019-01-26T03:17:54.002Z,90.85
2019-01-26T03:20:23.631Z,90.78
2019-01-26T03:22:53.411Z,90.94
2019-01-26T03:25:23.597Z,90.87
2019-01-26T03:27:53.141Z,90.93
2019-01-26T03:30:25.210Z,91.09
2019-01-26T03:33:03.708Z,91.01
2019-01-26T03:35:33.304Z,90.87
2019-01-26T03:38:02.833Z,90.94
2019-01-26T03:40:32.385Z,91.02
2019-01-26T03:43:01.936Z,91.02
2019-01-26T03:45:31.484Z,91.07
2019-01-26T03:48:01.040Z,90.89
2019-01-26T03:50:30.574Z,90.94
2019-01-26T03:53:00.117Z,91.03
2019-01-26T03:55:29.669Z,91.10
2019-01-26T03:57:59.453Z,91.06
2019-01-26T04:00:29.098Z,90.98
2019-01-26T04:02:58.677Z,91.05
2019-01-26T04:05:28.236Z,91.22
2019-01-26T04:07:57.775Z,91.10
2019-01-26T04:10:27.314Z,91.05
2019-01-26T04:12:56.865Z,90.98
2019-01-26T04:15:26.401Z,90.93
2019-01-26T04:17:55.948Z,90.98
2019-01-26T04:20:25.507Z,90.94
2019-01-26T04:22:55.031Z,90.95
2019-01-26T04:25:24.586Z,91.14
2019-01-26T04:27:54.108Z,91.12
2019-01-26T04:30:23.729Z,91.05
2019-01-26T04:32:53.298Z,91.31
2019-01-26T04:35:22.778Z,91.40
2019-01-26T04:37:52.313Z,91.38
2019-01-26T04:40:21.867Z,91.32
2019-01-26T04:42:51.454Z,91.39
2019-01-26T04:45:23.059Z,91.46
2019-01-26T04:47:52.699Z,91.35
2019-01-26T04:50:22.205Z,91.37
2019-01-26T04:52:51.729Z,91.38
2019-01-26T04:55:21.808Z,91.38
2019-01-26T04:57:51.602Z,91.37
2019-01-26T05:00:25.019Z,91.32
2019-01-26T05:02:54.556Z,91.23
2019-01-26T05:05:24.178Z,91.34
2019-01-26T05:07:53.876Z,91.55
2019-01-26T05:10:23.498Z,91.61
2019-01-26T05:12:53.101Z,91.54
2019-01-26T05:15:22.811Z,91.64
2019-01-26T05:17:52.646Z,91.55
2019-01-26T05:20:24.622Z,91.61
2019-01-26T05:22:54.169Z,91.55
2019-01-26T05:25:23.709Z,91.63
2019-01-26T05:27:53.257Z,91.63
2019-01-26T05:30:26.141Z,91.53
2019-01-26T05:32:55.807Z,91.53
2019-01-26T05:35:25.461Z,91.54
2019-01-26T05:37:54.974Z,91.57
2019-01-26T05:40:24.531Z,91.57
2019-01-26T05:42:54.074Z,91.70
2019-01-26T05:45:24.215Z,91.81
2019-01-26T05:47:53.823Z,91.75
2019-01-26T05:50:25.573Z,91.75
2019-01-26T05:52:55.210Z,91.72
2019-01-26T05:55:25.695Z,91.73
2019-01-26T05:57:55.275Z,91.78
2019-01-26T06:00:27.875Z,91.83
2019-01-26T06:02:57.413Z,91.80
2019-01-26T06:05:27.016Z,91.86
2019-01-26T06:07:56.816Z,91.87
2019-01-26T06:10:26.343Z,91.78
2019-01-26T06:12:55.955Z,91.73
2019-01-26T06:15:25.561Z,91.70
2019-01-26T06:17:55.482Z,91.66
2019-01-26T06:20:25.063Z,91.85
2019-01-26T06:22:54.596Z,92.03
2019-01-26T06:27:57.338Z,91.98
2019-01-26T06:30:27.007Z,91.92
2019-01-26T06:32:56.616Z,91.87
2019-01-26T06:35:26.142Z,91.76
2019-01-26T06:37:55.771Z,91.73
2019-01-26T06:40:25.319Z,91.71
2019-01-26T06:42:55.000Z,91.75
2019-01-26T06:45:24.488Z,91.66
2019-01-26T06:47:54.041Z,91.91
2019-01-26T06:50:25.897Z,91.87
2019-01-26T06:52:55.430Z,91.89
2019-01-26T06:55:25.037Z,91.96
2019-01-26T06:57:54.638Z,91.94
2019-01-26T07:00:27.628Z,91.97
2019-01-26T07:02:57.169Z,92.09
2019-01-26T07:05:29.527Z,92.20
2019-01-26T07:07:59.048Z,92.12
2019-01-26T07:10:28.596Z,92.07
2019-01-26T07:12:58.369Z,91.96
2019-01-26T07:15:27.889Z,92.07
2019-01-26T07:17:57.419Z,92.19
2019-01-26T07:20:27.042Z,92.06
2019-01-26T07:22:56.758Z,92.08
2019-01-26T07:25:26.326Z,92.05
2019-01-26T07:27:55.841Z,91.92
2019-01-26T07:30:26.901Z,91.83
2019-01-26T07:32:56.910Z,91.71
2019-01-26T07:35:26.426Z,91.72
2019-01-26T07:37:56.018Z,91.81
2019-01-26T07:40:26.145Z,91.86
2019-01-26T07:42:55.683Z,91.98
2019-01-26T07:45:25.514Z,91.98
2019-01-26T07:47:55.122Z,91.91
2019-01-26T07:50:27.210Z,91.81
2019-01-26T07:52:56.824Z,91.76
2019-01-26T07:55:26.664Z,91.79
2019-01-26T07:57:56.180Z,91.73
2019-01-26T08:00:30.255Z,91.59
2019-01-26T08:02:59.827Z,91.66
2019-01-26T08:05:29.751Z,91.56
2019-01-26T08:07:59.462Z,91.50
2019-01-26T08:10:30.658Z,91.57
2019-01-26T08:13:00.276Z,91.65
2019-01-26T08:15:32.716Z,91.62
2019-01-26T08:18:02.280Z,91.59
2019-01-26T08:20:31.804Z,91.50
2019-01-26T08:23:01.637Z,91.53
2019-01-26T08:25:32.779Z,91.33
2019-01-26T08:28:02.338Z,91.25
2019-01-26T08:30:31.941Z,91.27
2019-01-26T08:33:01.478Z,91.35
2019-01-26T08:35:31.161Z,91.31
2019-01-26T08:38:00.684Z,91.22
2019-01-26T08:40:30.250Z,91.37
2019-01-26T08:42:59.829Z,91.39
2019-01-26T08:45:30.466Z,91.37
2019-01-26T08:48:00.614Z,91.32
2019-01-26T08:50:30.103Z,91.51
2019-01-26T08:52:59.687Z,91.45
2019-01-26T08:55:29.216Z,91.39
2019-01-26T08:57:58.743Z,91.34
2019-01-26T09:00:30.216Z,91.35
2019-01-26T09:03:01.383Z,91.36
2019-01-26T09:05:32.555Z,91.25
2019-01-26T09:08:02.151Z,91.20
2019-01-26T09:10:31.720Z,91.17
2019-01-26T09:13:01.310Z,91.22
2019-01-26T09:15:30.812Z,91.26
2019-01-26T09:18:00.389Z,91.15
2019-01-26T09:20:31.683Z,91.10
2019-01-26T09:23:02.634Z,91.01
2019-01-26T09:25:32.964Z,91.01
2019-01-26T09:28:02.558Z,91.11
2019-01-26T09:30:32.148Z,91.09
2019-01-26T09:33:01.726Z,91.25
2019-01-26T09:35:31.280Z,91.20
2019-01-26T09:38:00.813Z,91.17
2019-01-26T09:40:34.132Z,91.08
2019-01-26T09:43:03.728Z,90.98
2019-01-26T09:45:33.358Z,91.06
2019-01-26T09:48:02.982Z,91.02
2019-01-26T09:50:32.563Z,90.92
2019-01-26T09:53:02.146Z,90.98
2019-01-26T09:55:31.719Z,90.98
2019-01-26T09:58:01.304Z,91.04
2019-01-26T10:00:30.895Z,91.13
2019-01-26T10:03:02.258Z,91.17
2019-01-26T10:05:31.819Z,91.29
2019-01-26T10:08:01.356Z,91.43
2019-01-26T10:10:30.948Z,91.52
2019-01-26T10:13:00.529Z,91.55
2019-01-26T10:15:31.714Z,91.53
2019-01-26T10:18:01.190Z,91.42
2019-01-26T10:20:42.840Z,91.26
2019-01-26T10:23:15.467Z,91.32
2019-01-26T10:25:48.675Z,91.44
2019-01-26T10:28:16.524Z,91.51
2019-01-26T10:30:47.784Z,91.32
2019-01-26T10:33:17.320Z,91.27
2019-01-26T10:36:02.332Z,91.28
2019-01-26T10:38:33.441Z,91.11
2019-01-26T10:41:02.787Z,91.12
2019-01-26T10:43:39.658Z,91.15
2019-01-26T10:46:09.171Z,91.26
2019-01-26T10:48:38.732Z,91.22
2019-01-26T10:51:08.281Z,91.21
2019-01-26T10:53:38.427Z,91.41
2019-01-26T10:56:08.062Z,91.41
2019-01-26T10:58:38.173Z,91.22
2019-01-26T11:01:09.433Z,91.14
2019-01-26T11:03:41.007Z,91.10
2019-01-26T11:06:11.379Z,91.11
2019-01-26T11:08:43.165Z,91.06
2019-01-26T11:11:12.757Z,91.03
2019-01-26T11:13:42.305Z,91.08
2019-01-26T11:16:13.426Z,91.06
2019-01-26T11:18:42.964Z,91.03
2019-01-26T11:21:12.481Z,90.89
2019-01-26T11:23:42.515Z,90.66
2019-01-26T11:26:14.009Z,90.63
2019-01-26T11:28:43.556Z,90.72
2019-01-26T11:31:14.054Z,90.57
2019-01-26T11:33:44.953Z,90.44
2019-01-26T11:36:17.812Z,90.43
2019-01-26T11:38:49.645Z,90.40
2019-01-26T11:41:19.202Z,90.25
2019-01-26T11:43:49.586Z,90.03
2019-01-26T11:46:20.839Z,90.07
2019-01-26T11:48:50.485Z,90.05
2019-01-26T11:51:25.012Z,90.19
2019-01-26T11:53:55.344Z,90.12
2019-01-26T11:56:26.562Z,90.05
2019-01-26T11:58:58.572Z,89.88
2019-01-26T12:01:33.719Z,89.65
2019-01-26T12:04:08.196Z,89.51
2019-01-26T12:06:40.407Z,89.49
2019-01-26T12:09:10.360Z,89.54
2019-01-26T12:11:40.076Z,89.48
2019-01-26T12:14:09.605Z,89.22
2019-01-26T12:16:39.451Z,89.13
2019-01-26T12:19:09.193Z,89.10
2019-01-26T12:21:38.763Z,88.90
2019-01-26T12:24:08.323Z,88.96
2019-01-26T12:26:38.498Z,88.92
2019-01-26T12:29:08.597Z,88.77
2019-01-26T12:31:38.211Z,88.62
2019-01-26T12:34:07.736Z,88.40
2019-01-26T12:36:37.294Z,88.36
2019-01-26T12:39:10.799Z,88.29
2019-01-26T12:41:40.405Z,88.30
2019-01-26T12:44:09.970Z,88.25
2019-01-26T12:46:39.531Z,88.33
2019-01-26T12:49:09.279Z,88.26
2019-01-26T12:51:38.853Z,88.14
2019-01-26T12:54:08.418Z,88.08
2019-01-26T12:56:38.006Z,87.95
2019-01-26T12:59:07.561Z,87.89
2019-01-26T13:01:37.090Z,87.87
2019-01-26T13:04:06.876Z,87.60
2019-01-26T13:06:36.436Z,87.35
2019-01-26T13:09:08.480Z,87.32
2019-01-26T13:11:38.179Z,87.16
2019-01-26T13:14:07.795Z,87.08
2019-01-26T13:16:37.342Z,87.02
2019-01-26T13:19:12.233Z,86.82
2019-01-26T13:21:41.850Z,86.59
2019-01-26T13:24:11.388Z,86.53
2019-01-26T13:26:40.915Z,86.27
2019-01-26T13:29:10.469Z,86.12
2019-01-26T13:31:40.021Z,85.87
2019-01-26T13:34:09.562Z,85.78
2019-01-26T13:36:39.204Z,85.74
2019-01-26T13:39:09.631Z,85.63
2019-01-26T13:41:39.153Z,85.44
2019-01-26T13:44:08.746Z,85.33
2019-01-26T13:46:38.321Z,85.35
2019-01-26T13:49:07.900Z,85.23
2019-01-26T13:51:37.415Z,85.17
2019-01-26T13:54:08.372Z,85.01
2019-01-26T13:56:38.625Z,84.87
2019-01-26T13:59:09.943Z,84.83
2019-01-26T14:01:39.489Z,84.70
2019-01-26T14:04:16.465Z,84.70
2019-01-26T14:06:42.492Z,84.63
2019-01-26T14:09:12.034Z,84.42
2019-01-26T14:11:41.583Z,84.36
2019-01-26T14:14:11.203Z,84.25
2019-01-26T14:16:40.854Z,84.13
2019-01-26T14:19:12.245Z,84.13
2019-01-26T14:21:41.831Z,84.08
2019-01-26T14:24:11.823Z,84.09
2019-01-26T14:26:41.372Z,84.13
2019-01-26T14:29:10.918Z,84.57
2019-01-26T14:31:41.761Z,84.50
2019-01-26T14:34:13.453Z,85.01
2019-01-26T14:36:43.010Z,85.20
2019-01-26T14:39:12.584Z,85.06
2019-01-26T14:41:42.120Z,84.98
2019-01-26T14:44:11.851Z,84.83
2019-01-26T14:46:41.394Z,84.63
2019-01-26T14:49:12.631Z,84.51
2019-01-26T14:51:42.750Z,84.31
2019-01-26T14:54:12.292Z,84.26
2019-01-26T14:56:41.821Z,84.10
2019-01-26T14:59:11.419Z,84.05
2019-01-26T15:01:42.985Z,83.94
2019-01-26T15:04:13.595Z,83.84
2019-01-26T15:06:43.127Z,83.80
2019-01-26T15:09:13.448Z,83.79
2019-01-26T15:11:44.034Z,84.01
2019-01-26T15:14:14.209Z,83.99
2019-01-26T15:16:45.541Z,84.02
2019-01-26T15:19:15.030Z,84.00
2019-01-26T15:21:47.771Z,84.01
2019-01-26T15:24:17.319Z,84.17
2019-01-26T15:26:47.629Z,84.23
2019-01-26T15:29:20.968Z,84.31
2019-01-26T15:31:50.465Z,84.39
2019-01-26T15:34:20.084Z,84.37
2019-01-26T15:36:49.649Z,84.75
2019-01-26T15:39:19.472Z,84.72
2019-01-26T15:44:18.678Z,85.12
2019-01-26T15:46:48.282Z,85.38
2019-01-26T15:49:20.035Z,85.61
2019-01-26T15:51:49.713Z,85.49
2019-01-26T15:54:22.604Z,85.71
2019-01-26T15:56:52.183Z,86.08
2019-01-26T15:59:21.696Z,86.30
2019-01-26T16:01:51.297Z,86.55
2019-01-26T16:04:23.747Z,86.34
2019-01-26T16:06:53.233Z,86.29
2019-01-26T16:09:22.780Z,86.36
2019-01-26T16:11:52.347Z,86.44
2019-01-26T16:14:21.889Z,86.39
2019-01-26T16:16:51.470Z,86.14
2019-01-26T16:19:21.080Z,86.03
2019-01-26T16:21:50.673Z,85.65
2019-01-26T16:24:20.493Z,85.50
2019-01-26T16:26:50.056Z,85.41
2019-01-26T16:29:19.608Z,85.32
2019-01-26T16:31:49.143Z,85.11
2019-01-26T16:34:18.668Z,85.07
2019-01-26T16:36:48.204Z,85.10
2019-01-26T16:39:18.270Z,84.99
2019-01-26T16:41:47.868Z,84.96
2019-01-26T16:44:17.465Z,84.97
2019-01-26T16:46:46.987Z,84.93
2019-01-26T16:49:16.718Z,84.93
2019-01-26T16:51:46.245Z,84.88
2019-01-26T16:54:15.800Z,84.78
2019-01-26T16:56:45.378Z,84.52
2019-01-26T16:59:28.885Z,84.40
2019-01-26T17:01:58.407Z,84.46
2019-01-26T17:04:28.444Z,84.40
2019-01-26T17:06:57.967Z,84.36
2019-01-26T17:09:27.506Z,84.60
2019-01-26T17:12:02.021Z,84.94
2019-01-26T17:14:31.606Z,85.33
2019-01-26T17:17:01.152Z,85.47
2019-01-26T17:19:30.694Z,85.76
2019-01-26T17:22:01.803Z,86.00
2019-01-26T17:24:31.299Z,86.15
2019-01-26T17:27:00.832Z,86.21
2019-01-26T17:29:30.628Z,86.50
2019-01-26T17:32:04.704Z,86.64
2019-01-26T17:34:34.661Z,86.65
2019-01-26T17:37:05.091Z,86.88
2019-01-26T17:39:34.657Z,86.63
2019-01-26T17:42:04.217Z,86.67
2019-01-26T17:44:35.289Z,86.85
2019-01-26T17:47:04.857Z,86.71
2019-01-26T17:49:34.380Z,86.81
2019-01-26T17:52:04.003Z,86.76
2019-01-26T17:54:33.536Z,86.66
2019-01-26T17:57:03.136Z,86.49
2019-01-26T17:59:32.686Z,86.21
2019-01-26T18:02:02.213Z,86.15
2019-01-26T18:04:31.791Z,86.25
2019-01-26T18:07:01.316Z,86.33
2019-01-26T18:12:12.868Z,86.00
2019-01-26T18:14:42.452Z,85.93
2019-01-26T18:17:12.204Z,85.80
2019-01-26T18:19:41.704Z,85.63
2019-01-26T18:22:14.195Z,85.51
2019-01-26T18:24:43.749Z,85.36
2019-01-26T18:27:13.283Z,85.28
2019-01-26T18:29:42.800Z,85.20
2019-01-26T18:32:12.356Z,85.17
2019-01-26T18:34:41.892Z,85.08
2019-01-26T18:37:11.458Z,85.15
2019-01-26T18:39:40.984Z,85.01
2019-01-26T18:42:11.827Z,84.88
2019-01-26T18:44:41.436Z,84.65
2019-01-26T18:47:11.029Z,84.54
2019-01-26T18:49:40.657Z,84.42
2019-01-26T18:52:12.107Z,84.26
2019-01-26T18:54:43.635Z,84.36
2019-01-26T18:57:13.230Z,84.16
2019-01-26T18:59:42.765Z,84.04
2019-01-26T19:02:12.290Z,84.05
2019-01-26T19:04:41.843Z,84.41
2019-01-26T19:07:13.284Z,85.08
2019-01-26T19:09:42.817Z,85.20
2019-01-26T19:12:12.375Z,85.46
2019-01-26T19:14:41.933Z,85.79
2019-01-26T19:17:11.470Z,85.86
2019-01-26T19:19:42.413Z,85.93
2019-01-26T19:22:11.996Z,85.70
2019-01-26T19:24:41.573Z,85.90
2019-01-26T19:27:11.082Z,86.06
2019-01-26T19:29:40.650Z,86.11
2019-01-26T19:32:10.243Z,86.21
2019-01-26T19:34:39.781Z,85.88
2019-01-26T19:37:11.115Z,85.72
2019-01-26T19:39:40.924Z,85.70
2019-01-26T19:42:13.387Z,85.81
2019-01-26T19:44:42.911Z,85.65
2019-01-26T19:47:12.447Z,85.57
2019-01-26T19:49:41.987Z,85.37
2019-01-26T19:52:11.651Z,85.10
2019-01-26T19:54:41.556Z,85.34
2019-01-26T19:57:12.846Z,85.37
2019-01-26T19:59:42.417Z,85.19
2019-01-26T20:02:12.014Z,85.20
2019-01-26T20:04:46.148Z,85.08
2019-01-26T20:07:15.491Z,84.88
2019-01-26T20:09:45.079Z,84.89
2019-01-26T20:12:14.659Z,84.71
2019-01-26T20:14:44.511Z,84.53
2019-01-26T20:17:14.142Z,84.49
2019-01-26T20:19:43.692Z,84.66
2019-01-26T20:22:15.859Z,84.70
2019-01-26T20:24:45.463Z,84.57
2019-01-26T20:27:17.652Z,84.31
2019-01-26T20:29:49.098Z,84.15
2019-01-26T20:32:21.514Z,83.88
2019-01-26T20:34:51.531Z,83.75
2019-01-26T20:37:21.040Z,83.63
2019-01-26T20:39:50.581Z,83.48
2019-01-26T20:42:20.154Z,83.44
2019-01-26T20:44:49.701Z,83.50
2019-01-26T20:47:19.215Z,83.40
2019-01-26T20:49:48.820Z,83.42
2019-01-26T20:52:19.908Z,83.38
2019-01-26T20:54:49.391Z,83.31
2019-01-26T20:57:18.946Z,83.18
2019-01-26T20:59:48.485Z,83.19
2019-01-26T21:02:18.100Z,83.04
2019-01-26T21:04:47.696Z,83.11
2019-01-26T21:07:18.888Z,82.89
2019-01-26T21:09:48.435Z,82.97
2019-01-26T21:12:18.090Z,82.73
2019-01-26T21:14:47.623Z,82.79
2019-01-26T21:17:17.178Z,82.89
2019-01-26T21:19:46.698Z,83.14
2019-01-26T21:22:16.230Z,83.27
2019-01-26T21:24:46.136Z,83.27
2019-01-26T21:27:16.702Z,83.13
2019-01-26T21:29:46.237Z,83.16
2019-01-26T21:32:15.852Z,83.20
2019-01-26T21:34:45.421Z,83.17
2019-01-26T21:37:14.937Z,83.15
2019-01-26T21:39:44.475Z,83.11
2019-01-26T21:42:14.237Z,83.18
2019-01-26T21:44:43.794Z,83.18
2019-01-26T21:47:13.297Z,83.05
2019-01-26T21:49:44.620Z,82.99
2019-01-26T21:52:14.474Z,82.80
2019-01-26T21:54:44.054Z,82.92
2019-01-26T21:57:13.755Z,82.78
2019-01-26T21:59:43.562Z,82.67
2019-01-26T22:04:46.265Z,82.53
2019-01-26T22:07:15.780Z,82.43
2019-01-26T22:09:45.318Z,82.28
2019-01-26T22:12:14.839Z,82.16
2019-01-26T22:14:44.392Z,81.96
2019-01-26T22:17:17.163Z,81.81
2019-01-26T22:19:46.740Z,81.75
2019-01-26T22:22:16.286Z,81.57
2019-01-26T22:24:45.810Z,81.59
2019-01-26T22:27:15.338Z,81.44
2019-01-26T22:29:44.884Z,81.35
2019-01-26T22:32:14.415Z,81.30
2019-01-26T22:34:44.564Z,81.13
2019-01-26T22:37:15.646Z,81.00
2019-01-26T22:39:45.238Z,81.04
2019-01-26T22:42:14.743Z,81.19
2019-01-26T22:44:44.601Z,81.39
2019-01-26T22:47:14.176Z,81.15
2019-01-26T22:49:43.708Z,81.39
2019-01-26T22:52:13.258Z,81.65
2019-01-26T22:54:42.778Z,81.55
2019-01-26T22:57:12.307Z,81.52
2019-01-26T22:59:41.856Z,81.77
2019-01-26T23:02:11.567Z,81.79
2019-01-26T23:04:45.790Z,81.79
2019-01-26T23:07:23.004Z,81.71
2019-01-26T23:10:25.089Z,81.74
2019-01-26T23:12:59.354Z,81.63
2019-01-26T23:15:39.367Z,81.59
2019-01-26T23:18:28.139Z,81.52
2019-01-26T23:21:21.602Z,81.41
2019-01-26T23:24:19.525Z,81.38
2019-01-26T23:27:10.116Z,81.45
2019-01-26T23:29:52.837Z,81.73
2019-01-26T23:32:22.383Z,81.76
2019-01-26T23:34:51.906Z,82.01
2019-01-26T23:37:21.467Z,81.95
2019-01-26T23:39:51.028Z,82.23
2019-01-26T23:42:20.579Z,82.26
2019-01-26T23:44:50.110Z,82.43
2019-01-26T23:47:19.643Z,82.36
2019-01-26T23:49:49.192Z,82.36
2019-01-26T23:52:18.755Z,82.28
2019-01-26T23:54:48.298Z,82.18
2019-01-26T23:57:19.835Z,82.05
2019-01-26T23:59:51.362Z,81.94
